sensor_id;sensor_type;location;lat;lon;timestamp;temperature;humidity
29917;DHT22;16786;49.466;11.068;2022-08-19T00:00:06;20.00;99.90
29917;DHT22;16786;49.466;11.068;2022-08-19T00:02:35;20.00;99.90
29917;DHT22;16786;49.466;11.068;2022-08-19T00:05:17;19.90;99.90
29917;DHT22;16786;49.466;11.068;2022-08-19T00:07:45;19.90;99.90
29917;DHT22;16786;49.466;11.068;2022-08-19T00:10:14;19.80;99.90
29917;DHT22;16786;49.466;11.068;2022-08-19T00:12:42;19.80;99.90
29917;DHT22;16786;49.466;11.068;2022-08-19T00:15:15;19.80;99.90
29917;DHT22;16786;49.466;11.068;2022-08-19T00:17:43;19.80;99.90
29917;DHT22;16786;49.466;11.068;2022-08-19T00:20:13;19.80;99.90
29917;DHT22;16786;49.466;11.068;2022-08-19T00:22:45;19.70;99.90
29917;DHT22;16786;49.466;11.068;2022-08-19T00:25:13;19.80;99.90
29917;DHT22;16786;49.466;11.068;2022-08-19T00:27:41;19.70;99.90
29917;DHT22;16786;49.466;11.068;2022-08-19T00:30:10;19.70;99.90
29917;DHT22;16786;49.466;11.068;2022-08-19T00:32:39;19.70;99.90
29917;DHT22;16786;49.466;11.068;2022-08-19T00:35:08;19.70;99.90
29917;DHT22;16786;49.466;11.068;2022-08-19T00:37:42;19.60;99.90
29917;DHT22;16786;49.466;11.068;2022-08-19T00:40:13;19.60;99.90
29917;DHT22;16786;49.466;11.068;2022-08-19T00:42:41;19.60;99.90
29917;DHT22;16786;49.466;11.068;2022-08-19T00:45:11;19.60;99.90
29917;DHT22;16786;49.466;11.068;2022-08-19T00:47:39;19.50;99.90
29917;DHT22;16786;49.466;11.068;2022-08-19T00:50:08;19.60;99.90
29917;DHT22;16786;49.466;11.068;2022-08-19T00:52:39;19.70;99.90
29917;DHT22;16786;49.466;11.068;2022-08-19T00:55:23;19.70;99.90
29917;DHT22;16786;49.466;11.068;2022-08-19T00:58:24;19.80;99.90
29917;DHT22;16786;49.466;11.068;2022-08-19T01:00:54;19.80;99.90
29917;DHT22;16786;49.466;11.068;2022-08-19T01:03:23;19.80;99.90
29917;DHT22;16786;49.466;11.068;2022-08-19T01:05:52;19.80;99.90
29917;DHT22;16786;49.466;11.068;2022-08-19T01:08:21;19.80;99.90
29917;DHT22;16786;49.466;11.068;2022-08-19T01:10:54;19.90;99.90
29917;DHT22;16786;49.466;11.068;2022-08-19T01:13:25;19.90;99.90
29917;DHT22;16786;49.466;11.068;2022-08-19T01:16:03;19.90;99.90
29917;DHT22;16786;49.466;11.068;2022-08-19T01:18:32;20.00;99.90
29917;DHT22;16786;49.466;11.068;2022-08-19T01:21:18;19.90;99.90
29917;DHT22;16786;49.466;11.068;2022-08-19T01:23:49;19.90;99.90
29917;DHT22;16786;49.466;11.068;2022-08-19T01:26:21;19.90;99.90
29917;DHT22;16786;49.466;11.068;2022-08-19T01:28:52;19.90;99.90
29917;DHT22;16786;49.466;11.068;2022-08-19T01:31:25;20.00;99.90
29917;DHT22;16786;49.466;11.068;2022-08-19T01:33:56;20.00;99.90
29917;DHT22;16786;49.466;11.068;2022-08-19T01:38:54;20.00;99.90
29917;DHT22;16786;49.466;11.068;2022-08-19T01:41:22;19.90;99.90
29917;DHT22;16786;49.466;11.068;2022-08-19T01:43:51;19.90;99.90
29917;DHT22;16786;49.466;11.068;2022-08-19T01:46:40;19.90;99.90
29917;DHT22;16786;49.466;11.068;2022-08-19T01:49:08;19.90;99.90
29917;DHT22;16786;49.466;11.068;2022-08-19T01:51:37;19.90;99.90
29917;DHT22;16786;49.466;11.068;2022-08-19T01:54:10;19.90;99.90
29917;DHT22;16786;49.466;11.068;2022-08-19T01:56:38;19.90;99.90
29917;DHT22;16786;49.466;11.068;2022-08-19T01:59:12;19.90;99.90
29917;DHT22;16786;49.466;11.068;2022-08-19T02:01:41;19.80;99.90
29917;DHT22;16786;49.466;11.068;2022-08-19T02:04:09;19.80;99.90
29917;DHT22;16786;49.466;11.068;2022-08-19T02:06:36;19.80;99.90
29917;DHT22;16786;49.466;11.068;2022-08-19T02:09:06;19.80;99.90
29917;DHT22;16786;49.466;11.068;2022-08-19T02:11:35;19.80;99.90
29917;DHT22;16786;49.466;11.068;2022-08-19T02:14:04;19.80;99.90
29917;DHT22;16786;49.466;11.068;2022-08-19T02:16:34;19.80;99.90
29917;DHT22;16786;49.466;11.068;2022-08-19T02:19:03;19.70;99.90
29917;DHT22;16786;49.466;11.068;2022-08-19T02:21:30;19.80;99.90
29917;DHT22;16786;49.466;11.068;2022-08-19T02:23:58;19.80;99.90
29917;DHT22;16786;49.466;11.068;2022-08-19T02:26:26;19.70;99.90
29917;DHT22;16786;49.466;11.068;2022-08-19T02:28:54;19.80;99.90
29917;DHT22;16786;49.466;11.068;2022-08-19T02:31:23;19.80;99.90
29917;DHT22;16786;49.466;11.068;2022-08-19T02:33:52;19.80;99.90
29917;DHT22;16786;49.466;11.068;2022-08-19T02:36:23;19.70;99.90
29917;DHT22;16786;49.466;11.068;2022-08-19T02:38:51;19.80;99.90
29917;DHT22;16786;49.466;11.068;2022-08-19T02:41:25;19.80;99.90
29917;DHT22;16786;49.466;11.068;2022-08-19T02:43:57;19.80;99.90
29917;DHT22;16786;49.466;11.068;2022-08-19T02:46:46;19.80;99.90
29917;DHT22;16786;49.466;11.068;2022-08-19T02:49:14;19.80;99.90
29917;DHT22;16786;49.466;11.068;2022-08-19T02:51:45;19.80;99.90
29917;DHT22;16786;49.466;11.068;2022-08-19T02:54:14;19.90;99.90
29917;DHT22;16786;49.466;11.068;2022-08-19T02:56:43;19.90;99.90
29917;DHT22;16786;49.466;11.068;2022-08-19T02:59:11;19.90;99.90
29917;DHT22;16786;49.466;11.068;2022-08-19T03:01:40;19.90;99.90
29917;DHT22;16786;49.466;11.068;2022-08-19T03:04:11;19.90;99.90
29917;DHT22;16786;49.466;11.068;2022-08-19T03:06:40;19.90;99.90
29917;DHT22;16786;49.466;11.068;2022-08-19T03:09:08;20.00;99.90
29917;DHT22;16786;49.466;11.068;2022-08-19T03:11:36;20.00;99.90
29917;DHT22;16786;49.466;11.068;2022-08-19T03:14:06;20.00;99.90
29917;DHT22;16786;49.466;11.068;2022-08-19T03:16:44;20.00;99.90
29917;DHT22;16786;49.466;11.068;2022-08-19T03:19:12;20.00;99.90
29917;DHT22;16786;49.466;11.068;2022-08-19T03:21:40;20.00;99.90
29917;DHT22;16786;49.466;11.068;2022-08-19T03:24:09;20.00;99.90
29917;DHT22;16786;49.466;11.068;2022-08-19T03:26:42;19.90;99.90
29917;DHT22;16786;49.466;11.068;2022-08-19T03:29:09;19.90;99.90
29917;DHT22;16786;49.466;11.068;2022-08-19T03:31:40;19.90;99.90
29917;DHT22;16786;49.466;11.068;2022-08-19T03:34:25;19.90;99.90
29917;DHT22;16786;49.466;11.068;2022-08-19T03:36:59;19.90;99.90
29917;DHT22;16786;49.466;11.068;2022-08-19T03:39:29;19.80;99.90
29917;DHT22;16786;49.466;11.068;2022-08-19T03:41:57;19.70;99.90
29917;DHT22;16786;49.466;11.068;2022-08-19T03:44:47;19.70;99.90
29917;DHT22;16786;49.466;11.068;2022-08-19T03:47:14;19.70;99.90
29917;DHT22;16786;49.466;11.068;2022-08-19T03:49:42;19.60;99.90
29917;DHT22;16786;49.466;11.068;2022-08-19T03:52:10;19.60;99.90
29917;DHT22;16786;49.466;11.068;2022-08-19T03:54:38;19.60;99.90
29917;DHT22;16786;49.466;11.068;2022-08-19T03:57:06;19.60;99.90
29917;DHT22;16786;49.466;11.068;2022-08-19T03:59:37;19.60;99.90
29917;DHT22;16786;49.466;11.068;2022-08-19T04:02:10;19.60;99.90
29917;DHT22;16786;49.466;11.068;2022-08-19T04:04:40;19.60;99.90
29917;DHT22;16786;49.466;11.068;2022-08-19T04:07:09;19.60;99.90
29917;DHT22;16786;49.466;11.068;2022-08-19T04:09:37;19.60;99.90
29917;DHT22;16786;49.466;11.068;2022-08-19T04:12:05;19.60;99.90
29917;DHT22;16786;49.466;11.068;2022-08-19T04:14:33;19.60;99.90
29917;DHT22;16786;49.466;11.068;2022-08-19T04:17:02;19.50;99.90
29917;DHT22;16786;49.466;11.068;2022-08-19T04:19:34;19.50;99.90
29917;DHT22;16786;49.466;11.068;2022-08-19T04:22:02;19.50;99.90
29917;DHT22;16786;49.466;11.068;2022-08-19T04:24:30;19.50;99.90
29917;DHT22;16786;49.466;11.068;2022-08-19T04:27:00;19.50;99.90
29917;DHT22;16786;49.466;11.068;2022-08-19T04:29:27;19.50;99.90
29917;DHT22;16786;49.466;11.068;2022-08-19T04:31:58;19.50;99.90
29917;DHT22;16786;49.466;11.068;2022-08-19T04:34:28;19.60;99.90
29917;DHT22;16786;49.466;11.068;2022-08-19T04:36:58;19.50;99.90
29917;DHT22;16786;49.466;11.068;2022-08-19T04:39:28;19.60;99.90
29917;DHT22;16786;49.466;11.068;2022-08-19T04:42:17;19.70;99.90
29917;DHT22;16786;49.466;11.068;2022-08-19T04:45:13;19.70;99.90
29917;DHT22;16786;49.466;11.068;2022-08-19T04:47:42;19.80;99.90
29917;DHT22;16786;49.466;11.068;2022-08-19T04:50:14;19.80;99.90
29917;DHT22;16786;49.466;11.068;2022-08-19T04:52:44;19.80;99.90
29917;DHT22;16786;49.466;11.068;2022-08-19T04:55:12;19.80;99.90
29917;DHT22;16786;49.466;11.068;2022-08-19T04:57:40;19.90;99.90
29917;DHT22;16786;49.466;11.068;2022-08-19T05:00:09;19.90;99.90
29917;DHT22;16786;49.466;11.068;2022-08-19T05:02:37;20.00;99.90
29917;DHT22;16786;49.466;11.068;2022-08-19T05:05:05;20.00;99.90
29917;DHT22;16786;49.466;11.068;2022-08-19T05:07:33;20.10;99.90
29917;DHT22;16786;49.466;11.068;2022-08-19T05:10:01;20.10;99.90
29917;DHT22;16786;49.466;11.068;2022-08-19T05:12:29;20.10;99.90
29917;DHT22;16786;49.466;11.068;2022-08-19T05:14:57;20.00;99.90
29917;DHT22;16786;49.466;11.068;2022-08-19T05:17:26;20.00;99.90
29917;DHT22;16786;49.466;11.068;2022-08-19T05:19:58;20.00;99.90
29917;DHT22;16786;49.466;11.068;2022-08-19T05:22:46;20.00;99.90
29917;DHT22;16786;49.466;11.068;2022-08-19T05:25:17;20.10;99.90
29917;DHT22;16786;49.466;11.068;2022-08-19T05:27:46;20.20;99.90
29917;DHT22;16786;49.466;11.068;2022-08-19T05:30:14;20.20;99.90
29917;DHT22;16786;49.466;11.068;2022-08-19T05:32:42;20.20;99.90
29917;DHT22;16786;49.466;11.068;2022-08-19T05:35:09;20.20;99.90
29917;DHT22;16786;49.466;11.068;2022-08-19T05:37:38;20.40;99.90
29917;DHT22;16786;49.466;11.068;2022-08-19T05:40:08;20.40;99.90
29917;DHT22;16786;49.466;11.068;2022-08-19T05:42:36;20.50;99.90
29917;DHT22;16786;49.466;11.068;2022-08-19T05:45:04;20.50;99.90
29917;DHT22;16786;49.466;11.068;2022-08-19T05:47:32;20.60;99.90
29917;DHT22;16786;49.466;11.068;2022-08-19T05:49:59;20.70;99.90
29917;DHT22;16786;49.466;11.068;2022-08-19T05:52:31;20.70;99.90
29917;DHT22;16786;49.466;11.068;2022-08-19T05:54:59;20.70;99.90
29917;DHT22;16786;49.466;11.068;2022-08-19T05:57:26;20.90;99.90
29917;DHT22;16786;49.466;11.068;2022-08-19T05:59:56;21.00;99.90
29917;DHT22;16786;49.466;11.068;2022-08-19T06:02:26;21.10;99.90
29917;DHT22;16786;49.466;11.068;2022-08-19T06:04:53;21.20;99.90
29917;DHT22;16786;49.466;11.068;2022-08-19T06:07:21;21.30;99.90
29917;DHT22;16786;49.466;11.068;2022-08-19T06:09:48;21.50;99.90
29917;DHT22;16786;49.466;11.068;2022-08-19T06:12:28;21.40;99.90
29917;DHT22;16786;49.466;11.068;2022-08-19T06:15:03;21.60;99.90
29917;DHT22;16786;49.466;11.068;2022-08-19T06:17:31;21.80;99.90
29917;DHT22;16786;49.466;11.068;2022-08-19T06:19:59;21.80;99.90
29917;DHT22;16786;49.466;11.068;2022-08-19T06:22:27;21.90;99.90
29917;DHT22;16786;49.466;11.068;2022-08-19T06:24:55;22.00;99.90
29917;DHT22;16786;49.466;11.068;2022-08-19T06:27:23;21.90;99.90
29917;DHT22;16786;49.466;11.068;2022-08-19T06:29:50;21.90;99.90
29917;DHT22;16786;49.466;11.068;2022-08-19T06:32:18;21.80;99.90
29917;DHT22;16786;49.466;11.068;2022-08-19T06:34:48;21.80;99.90
29917;DHT22;16786;49.466;11.068;2022-08-19T06:37:15;21.90;99.90
29917;DHT22;16786;49.466;11.068;2022-08-19T06:39:44;22.10;99.90
29917;DHT22;16786;49.466;11.068;2022-08-19T06:42:12;22.10;99.90
29917;DHT22;16786;49.466;11.068;2022-08-19T06:44:42;22.30;99.90
29917;DHT22;16786;49.466;11.068;2022-08-19T06:47:18;22.40;99.90
29917;DHT22;16786;49.466;11.068;2022-08-19T06:49:54;22.40;99.90
29917;DHT22;16786;49.466;11.068;2022-08-19T06:52:27;22.40;99.90
29917;DHT22;16786;49.466;11.068;2022-08-19T06:54:55;22.40;99.90
29917;DHT22;16786;49.466;11.068;2022-08-19T06:57:26;22.60;99.90
29917;DHT22;16786;49.466;11.068;2022-08-19T06:59:54;22.40;99.90
29917;DHT22;16786;49.466;11.068;2022-08-19T07:02:23;22.50;99.90
29917;DHT22;16786;49.466;11.068;2022-08-19T07:04:53;22.40;99.90
29917;DHT22;16786;49.466;11.068;2022-08-19T07:07:21;22.60;99.90
29917;DHT22;16786;49.466;11.068;2022-08-19T07:09:50;22.70;99.90
29917;DHT22;16786;49.466;11.068;2022-08-19T07:12:31;22.90;99.90
29917;DHT22;16786;49.466;11.068;2022-08-19T07:15:05;23.20;99.90
29917;DHT22;16786;49.466;11.068;2022-08-19T07:17:34;23.30;99.90
29917;DHT22;16786;49.466;11.068;2022-08-19T07:20:06;23.30;99.90
29917;DHT22;16786;49.466;11.068;2022-08-19T07:22:39;23.30;99.90
29917;DHT22;16786;49.466;11.068;2022-08-19T07:25:09;23.20;99.90
29917;DHT22;16786;49.466;11.068;2022-08-19T07:27:37;22.90;99.90
29917;DHT22;16786;49.466;11.068;2022-08-19T07:30:07;22.90;99.90
29917;DHT22;16786;49.466;11.068;2022-08-19T07:32:39;22.70;99.90
29917;DHT22;16786;49.466;11.068;2022-08-19T07:35:07;22.70;99.90
29917;DHT22;16786;49.466;11.068;2022-08-19T07:37:35;22.60;99.90
29917;DHT22;16786;49.466;11.068;2022-08-19T07:40:06;22.50;99.90
29917;DHT22;16786;49.466;11.068;2022-08-19T07:42:34;22.30;99.90
29917;DHT22;16786;49.466;11.068;2022-08-19T07:45:02;22.20;99.90
29917;DHT22;16786;49.466;11.068;2022-08-19T07:47:30;22.10;99.90
29917;DHT22;16786;49.466;11.068;2022-08-19T07:50:19;21.90;99.90
29917;DHT22;16786;49.466;11.068;2022-08-19T07:52:48;21.90;99.90
29917;DHT22;16786;49.466;11.068;2022-08-19T07:55:20;21.80;99.90
29917;DHT22;16786;49.466;11.068;2022-08-19T07:58:07;21.90;99.90
29917;DHT22;16786;49.466;11.068;2022-08-19T08:00:35;21.90;99.90
29917;DHT22;16786;49.466;11.068;2022-08-19T08:03:03;21.90;99.90
29917;DHT22;16786;49.466;11.068;2022-08-19T08:05:30;22.00;99.90
29917;DHT22;16786;49.466;11.068;2022-08-19T08:08:16;22.10;99.90
29917;DHT22;16786;49.466;11.068;2022-08-19T08:11:02;22.30;99.90
29917;DHT22;16786;49.466;11.068;2022-08-19T08:13:33;22.40;99.90
29917;DHT22;16786;49.466;11.068;2022-08-19T08:16:05;22.60;99.90
29917;DHT22;16786;49.466;11.068;2022-08-19T08:18:40;22.80;99.90
29917;DHT22;16786;49.466;11.068;2022-08-19T08:21:16;22.90;99.90
29917;DHT22;16786;49.466;11.068;2022-08-19T08:23:44;23.10;99.90
29917;DHT22;16786;49.466;11.068;2022-08-19T08:26:11;23.00;99.90
29917;DHT22;16786;49.466;11.068;2022-08-19T08:28:41;23.00;99.90
29917;DHT22;16786;49.466;11.068;2022-08-19T08:31:15;22.90;99.90
29917;DHT22;16786;49.466;11.068;2022-08-19T08:33:42;22.70;99.90
29917;DHT22;16786;49.466;11.068;2022-08-19T08:36:11;22.70;99.90
29917;DHT22;16786;49.466;11.068;2022-08-19T08:38:42;22.80;99.90
29917;DHT22;16786;49.466;11.068;2022-08-19T08:43:45;22.30;99.90
29917;DHT22;16786;49.466;11.068;2022-08-19T08:46:14;22.20;99.90
29917;DHT22;16786;49.466;11.068;2022-08-19T08:52:03;21.70;99.90
29917;DHT22;16786;49.466;11.068;2022-08-19T08:54:38;21.50;99.90
29917;DHT22;16786;49.466;11.068;2022-08-19T08:58:06;21.40;99.90
29917;DHT22;16786;49.466;11.068;2022-08-19T09:00:14;21.50;99.90
29917;DHT22;16786;49.466;11.068;2022-08-19T09:02:44;21.30;99.90
29917;DHT22;16786;49.466;11.068;2022-08-19T09:05:18;21.30;99.90
29917;DHT22;16786;49.466;11.068;2022-08-19T09:10:38;21.40;99.90
29917;DHT22;16786;49.466;11.068;2022-08-19T09:16:07;21.20;99.90
29917;DHT22;16786;49.466;11.068;2022-08-19T09:18:45;21.20;99.90
29917;DHT22;16786;49.466;11.068;2022-08-19T09:21:22;21.20;99.90
29917;DHT22;16786;49.466;11.068;2022-08-19T09:23:56;21.30;99.90
29917;DHT22;16786;49.466;11.068;2022-08-19T09:26:26;21.20;99.90
29917;DHT22;16786;49.466;11.068;2022-08-19T09:29:13;21.30;99.90
29917;DHT22;16786;49.466;11.068;2022-08-19T09:31:41;21.30;99.90
29917;DHT22;16786;49.466;11.068;2022-08-19T09:34:08;21.30;99.90
29917;DHT22;16786;49.466;11.068;2022-08-19T09:36:48;21.20;99.90
29917;DHT22;16786;49.466;11.068;2022-08-19T09:39:21;21.30;99.90
29917;DHT22;16786;49.466;11.068;2022-08-19T09:41:49;21.20;99.90
29917;DHT22;16786;49.466;11.068;2022-08-19T09:44:17;21.20;99.90
29917;DHT22;16786;49.466;11.068;2022-08-19T09:46:45;21.30;99.90
29917;DHT22;16786;49.466;11.068;2022-08-19T09:49:16;21.20;99.90
29917;DHT22;16786;49.466;11.068;2022-08-19T09:51:45;21.30;99.90
29917;DHT22;16786;49.466;11.068;2022-08-19T09:54:17;21.10;99.90
29917;DHT22;16786;49.466;11.068;2022-08-19T09:56:55;21.30;99.90
29917;DHT22;16786;49.466;11.068;2022-08-19T09:59:23;21.50;99.90
29917;DHT22;16786;49.466;11.068;2022-08-19T10:01:50;21.70;99.90
29917;DHT22;16786;49.466;11.068;2022-08-19T10:04:19;21.70;99.90
29917;DHT22;16786;49.466;11.068;2022-08-19T10:06:49;21.80;99.90
29917;DHT22;16786;49.466;11.068;2022-08-19T10:09:21;21.90;99.90
29917;DHT22;16786;49.466;11.068;2022-08-19T10:12:00;21.90;99.90
29917;DHT22;16786;49.466;11.068;2022-08-19T10:14:29;21.90;99.90
29917;DHT22;16786;49.466;11.068;2022-08-19T10:16:56;21.90;99.90
29917;DHT22;16786;49.466;11.068;2022-08-19T10:19:25;21.90;99.90
29917;DHT22;16786;49.466;11.068;2022-08-19T10:21:53;21.90;99.90
29917;DHT22;16786;49.466;11.068;2022-08-19T10:24:26;21.80;99.90
29917;DHT22;16786;49.466;11.068;2022-08-19T10:26:55;21.60;99.90
29917;DHT22;16786;49.466;11.068;2022-08-19T10:29:26;21.60;99.90
29917;DHT22;16786;49.466;11.068;2022-08-19T10:32:04;21.60;99.90
29917;DHT22;16786;49.466;11.068;2022-08-19T10:34:37;21.60;99.90
29917;DHT22;16786;49.466;11.068;2022-08-19T10:37:16;21.60;99.90
29917;DHT22;16786;49.466;11.068;2022-08-19T10:39:52;21.60;99.90
29917;DHT22;16786;49.466;11.068;2022-08-19T10:42:19;21.60;99.90
29917;DHT22;16786;49.466;11.068;2022-08-19T10:44:47;21.60;99.90
29917;DHT22;16786;49.466;11.068;2022-08-19T10:47:18;21.70;99.90
29917;DHT22;16786;49.466;11.068;2022-08-19T10:49:53;21.60;99.90
29917;DHT22;16786;49.466;11.068;2022-08-19T10:52:44;21.50;99.90
29917;DHT22;16786;49.466;11.068;2022-08-19T10:55:18;21.60;99.90
29917;DHT22;16786;49.466;11.068;2022-08-19T10:58:14;21.60;99.90
29917;DHT22;16786;49.466;11.068;2022-08-19T11:00:42;21.60;99.90
29917;DHT22;16786;49.466;11.068;2022-08-19T11:03:10;21.60;99.90
29917;DHT22;16786;49.466;11.068;2022-08-19T11:05:38;21.60;99.90
29917;DHT22;16786;49.466;11.068;2022-08-19T11:08:08;21.60;99.90
29917;DHT22;16786;49.466;11.068;2022-08-19T11:10:54;21.70;99.90
29917;DHT22;16786;49.466;11.068;2022-08-19T11:13:24;21.70;99.90
29917;DHT22;16786;49.466;11.068;2022-08-19T11:16:05;21.70;99.90
29917;DHT22;16786;49.466;11.068;2022-08-19T11:18:40;21.80;99.90
29917;DHT22;16786;49.466;11.068;2022-08-19T11:21:11;21.80;99.90
29917;DHT22;16786;49.466;11.068;2022-08-19T11:23:39;21.80;99.90
29917;DHT22;16786;49.466;11.068;2022-08-19T11:26:06;21.80;99.90
29917;DHT22;16786;49.466;11.068;2022-08-19T11:28:34;21.90;99.90
29917;DHT22;16786;49.466;11.068;2022-08-19T11:31:01;21.90;99.90
29917;DHT22;16786;49.466;11.068;2022-08-19T11:33:31;21.90;99.90
29917;DHT22;16786;49.466;11.068;2022-08-19T11:35:59;21.90;99.90
29917;DHT22;16786;49.466;11.068;2022-08-19T11:38:28;21.90;99.90
29917;DHT22;16786;49.466;11.068;2022-08-19T11:41:03;21.90;99.90
29917;DHT22;16786;49.466;11.068;2022-08-19T11:43:31;21.90;99.90
29917;DHT22;16786;49.466;11.068;2022-08-19T11:46:08;21.90;99.90
29917;DHT22;16786;49.466;11.068;2022-08-19T11:48:37;21.90;99.90
29917;DHT22;16786;49.466;11.068;2022-08-19T11:51:09;21.90;99.90
29917;DHT22;16786;49.466;11.068;2022-08-19T11:53:38;21.70;99.90
29917;DHT22;16786;49.466;11.068;2022-08-19T11:56:07;21.70;99.90
29917;DHT22;16786;49.466;11.068;2022-08-19T11:58:35;21.60;99.90
29917;DHT22;16786;49.466;11.068;2022-08-19T12:01:10;21.50;99.90
29917;DHT22;16786;49.466;11.068;2022-08-19T12:03:38;21.50;99.90
29917;DHT22;16786;49.466;11.068;2022-08-19T12:06:07;21.50;99.90
29917;DHT22;16786;49.466;11.068;2022-08-19T12:08:36;21.50;99.90
29917;DHT22;16786;49.466;11.068;2022-08-19T12:11:03;21.50;99.90
29917;DHT22;16786;49.466;11.068;2022-08-19T12:13:31;21.50;99.90
29917;DHT22;16786;49.466;11.068;2022-08-19T12:15:58;21.50;99.90
29917;DHT22;16786;49.466;11.068;2022-08-19T12:18:26;21.60;99.90
29917;DHT22;16786;49.466;11.068;2022-08-19T12:20:54;21.50;99.90
29917;DHT22;16786;49.466;11.068;2022-08-19T12:23:22;21.60;99.90
29917;DHT22;16786;49.466;11.068;2022-08-19T12:25:50;21.50;99.90
29917;DHT22;16786;49.466;11.068;2022-08-19T12:28:20;21.50;99.90
29917;DHT22;16786;49.466;11.068;2022-08-19T12:30:49;21.50;99.90
29917;DHT22;16786;49.466;11.068;2022-08-19T12:33:19;21.40;99.90
29917;DHT22;16786;49.466;11.068;2022-08-19T12:35:51;21.40;99.90
29917;DHT22;16786;49.466;11.068;2022-08-19T12:38:19;21.30;99.90
29917;DHT22;16786;49.466;11.068;2022-08-19T12:40:47;21.20;99.90
29917;DHT22;16786;49.466;11.068;2022-08-19T12:43:15;21.20;99.90
29917;DHT22;16786;49.466;11.068;2022-08-19T12:45:42;21.10;99.90
29917;DHT22;16786;49.466;11.068;2022-08-19T12:48:13;21.10;99.90
29917;DHT22;16786;49.466;11.068;2022-08-19T12:51:06;21.10;99.90
29917;DHT22;16786;49.466;11.068;2022-08-19T12:53:34;21.10;99.90
29917;DHT22;16786;49.466;11.068;2022-08-19T12:56:06;21.00;99.90
29917;DHT22;16786;49.466;11.068;2022-08-19T12:58:39;21.10;99.90
29917;DHT22;16786;49.466;11.068;2022-08-19T13:01:19;21.00;99.90
29917;DHT22;16786;49.466;11.068;2022-08-19T13:03:50;20.90;99.90
29917;DHT22;16786;49.466;11.068;2022-08-19T13:06:19;20.80;99.90
29917;DHT22;16786;49.466;11.068;2022-08-19T13:08:47;20.80;99.90
29917;DHT22;16786;49.466;11.068;2022-08-19T13:11:17;20.80;99.90
29917;DHT22;16786;49.466;11.068;2022-08-19T13:13:47;20.70;99.90
29917;DHT22;16786;49.466;11.068;2022-08-19T13:16:16;20.80;99.90
29917;DHT22;16786;49.466;11.068;2022-08-19T13:18:45;20.80;99.90
29917;DHT22;16786;49.466;11.068;2022-08-19T13:21:20;20.80;99.90
29917;DHT22;16786;49.466;11.068;2022-08-19T13:23:50;20.90;99.90
29917;DHT22;16786;49.466;11.068;2022-08-19T13:26:18;21.00;99.90
29917;DHT22;16786;49.466;11.068;2022-08-19T13:28:46;21.10;99.90
29917;DHT22;16786;49.466;11.068;2022-08-19T13:31:39;21.20;99.90
29917;DHT22;16786;49.466;11.068;2022-08-19T13:34:32;21.00;99.90
29917;DHT22;16786;49.466;11.068;2022-08-19T13:37:03;21.00;99.90
29917;DHT22;16786;49.466;11.068;2022-08-19T13:39:32;21.00;99.90
29917;DHT22;16786;49.466;11.068;2022-08-19T13:42:01;21.00;99.90
29917;DHT22;16786;49.466;11.068;2022-08-19T13:44:29;20.90;99.90
29917;DHT22;16786;49.466;11.068;2022-08-19T13:47:03;20.90;99.90
29917;DHT22;16786;49.466;11.068;2022-08-19T13:49:35;20.90;99.90
29917;DHT22;16786;49.466;11.068;2022-08-19T13:52:04;20.80;99.90
29917;DHT22;16786;49.466;11.068;2022-08-19T13:54:32;20.80;99.90
29917;DHT22;16786;49.466;11.068;2022-08-19T13:57:00;20.80;99.90
29917;DHT22;16786;49.466;11.068;2022-08-19T13:59:28;20.90;99.90
29917;DHT22;16786;49.466;11.068;2022-08-19T14:01:59;21.00;99.90
29917;DHT22;16786;49.466;11.068;2022-08-19T14:04:27;21.10;99.90
29917;DHT22;16786;49.466;11.068;2022-08-19T14:06:55;21.10;99.90
29917;DHT22;16786;49.466;11.068;2022-08-19T14:09:22;21.00;99.90
29917;DHT22;16786;49.466;11.068;2022-08-19T14:11:50;21.10;99.90
29917;DHT22;16786;49.466;11.068;2022-08-19T14:14:18;21.20;99.90
29917;DHT22;16786;49.466;11.068;2022-08-19T14:16:45;21.20;99.90
29917;DHT22;16786;49.466;11.068;2022-08-19T14:19:13;21.10;99.90
29917;DHT22;16786;49.466;11.068;2022-08-19T14:21:40;21.00;99.90
29917;DHT22;16786;49.466;11.068;2022-08-19T14:24:08;20.80;99.90
29917;DHT22;16786;49.466;11.068;2022-08-19T14:26:36;20.70;99.90
29917;DHT22;16786;49.466;11.068;2022-08-19T14:29:03;20.60;99.90
29917;DHT22;16786;49.466;11.068;2022-08-19T14:31:31;20.50;99.90
29917;DHT22;16786;49.466;11.068;2022-08-19T14:33:58;20.50;99.90
29917;DHT22;16786;49.466;11.068;2022-08-19T14:36:25;20.30;99.90
29917;DHT22;16786;49.466;11.068;2022-08-19T14:38:53;20.30;99.90
29917;DHT22;16786;49.466;11.068;2022-08-19T14:41:22;20.20;99.90
29917;DHT22;16786;49.466;11.068;2022-08-19T14:43:51;20.20;99.90
29917;DHT22;16786;49.466;11.068;2022-08-19T14:46:24;20.10;99.90
29917;DHT22;16786;49.466;11.068;2022-08-19T14:48:55;20.00;99.90
29917;DHT22;16786;49.466;11.068;2022-08-19T14:51:25;19.90;99.90
29917;DHT22;16786;49.466;11.068;2022-08-19T14:53:56;19.90;99.90
29917;DHT22;16786;49.466;11.068;2022-08-19T14:56:26;19.80;99.90
29917;DHT22;16786;49.466;11.068;2022-08-19T14:58:55;19.80;99.90
29917;DHT22;16786;49.466;11.068;2022-08-19T15:01:24;19.80;99.90
29917;DHT22;16786;49.466;11.068;2022-08-19T15:03:51;19.80;99.90
29917;DHT22;16786;49.466;11.068;2022-08-19T15:06:23;19.80;99.90
29917;DHT22;16786;49.466;11.068;2022-08-19T15:08:51;19.80;99.90
29917;DHT22;16786;49.466;11.068;2022-08-19T15:11:21;19.80;99.90
29917;DHT22;16786;49.466;11.068;2022-08-19T15:13:50;19.70;99.90
29917;DHT22;16786;49.466;11.068;2022-08-19T15:16:18;19.70;99.90
29917;DHT22;16786;49.466;11.068;2022-08-19T15:18:48;19.70;99.90
29917;DHT22;16786;49.466;11.068;2022-08-19T15:21:17;19.70;99.90
29917;DHT22;16786;49.466;11.068;2022-08-19T15:23:54;19.70;99.90
29917;DHT22;16786;49.466;11.068;2022-08-19T15:26:22;19.70;99.90
29917;DHT22;16786;49.466;11.068;2022-08-19T15:28:50;19.60;99.90
29917;DHT22;16786;49.466;11.068;2022-08-19T15:31:19;19.60;99.90
29917;DHT22;16786;49.466;11.068;2022-08-19T15:33:56;19.60;99.90
29917;DHT22;16786;49.466;11.068;2022-08-19T15:36:25;19.50;99.90
29917;DHT22;16786;49.466;11.068;2022-08-19T15:38:54;19.50;99.90
29917;DHT22;16786;49.466;11.068;2022-08-19T15:41:27;19.40;99.90
29917;DHT22;16786;49.466;11.068;2022-08-19T15:44:01;19.40;99.90
29917;DHT22;16786;49.466;11.068;2022-08-19T15:46:32;19.30;99.90
29917;DHT22;16786;49.466;11.068;2022-08-19T15:49:00;19.10;99.90
29917;DHT22;16786;49.466;11.068;2022-08-19T15:51:30;19.00;99.90